Time;durP1;ratioP1;P1;durP2;ratioP2;P2;SDS_P1;SDS_P2;PMS_P1;PMS_P2;Temp;Humidity;BMP_temperature;BMP_pressure;BME280_temperature;BME280_humidity;BME280_pressure;Samples;Min_cycle;Max_cycle;Signal;HPM_P1;HPM_P2
2023/12/01 00:02:17;;;;;;;195.90;67.00;;;;;;;-3.00;85.35;99552.57;111066;1205;138933;-66
2023/12/01 00:04:42;;;;;;;199.20;67.80;;;;;;;-3.02;85.33;99551.55;111088;1209;99032;-67
2023/12/01 00:07:07;;;;;;;222.20;72.60;;;;;;;-3.03;85.30;99556.95;111014;1208;139078;-66
2023/12/01 00:09:33;;;;;;;223.60;76.80;;;;;;;-3.05;85.10;99553.14;111107;1206;98906;-67
2023/12/01 00:11:58;;;;;;;225.70;75.70;;;;;;;-3.07;85.29;99556.12;111019;1208;99108;-66
2023/12/01 00:14:24;;;;;;;227.60;75.90;;;;;;;-3.10;84.95;99553.34;111070;1206;139690;-67
2023/12/01 00:16:49;;;;;;;228.50;76.70;;;;;;;-3.13;85.22;99552.14;111066;1219;99021;-66
2023/12/01 00:19:14;;;;;;;215.10;76.40;;;;;;;-3.14;85.11;99554.93;110987;1208;141030;-67
2023/12/01 00:21:40;;;;;;;236.60;76.80;;;;;;;-3.18;84.81;99551.81;111134;1206;97778;-67
2023/12/01 00:24:06;;;;;;;236.10;77.60;;;;;;;-3.21;85.34;99555.67;111078;1208;99018;-66
2023/12/01 00:26:31;;;;;;;231.10;78.20;;;;;;;-3.23;84.83;99551.49;110954;1206;139591;-66
2023/12/01 00:28:57;;;;;;;230.70;75.10;;;;;;;-3.26;84.94;99555.17;111061;1209;99724;-66
2023/12/01 00:31:22;;;;;;;209.40;73.30;;;;;;;-3.29;84.68;99557.46;110924;1206;138998;-67
2023/12/01 00:33:47;;;;;;;214.90;74.70;;;;;;;-3.31;84.96;99563.94;111169;1206;97843;-66
2023/12/01 00:36:13;;;;;;;213.20;71.60;;;;;;;-3.30;85.18;99565.33;111113;1208;99945;-66
2023/12/01 00:38:39;;;;;;;199.10;69.60;;;;;;;-3.25;85.26;99566.00;110959;1206;138800;-67
2023/12/01 00:41:05;;;;;;;203.70;70.50;;;;;;;-3.26;84.82;99572.30;111101;1219;98559;-67
2023/12/01 00:43:30;;;;;;;205.10;69.80;;;;;;;-3.30;84.72;99577.20;111009;1208;141228;-67
2023/12/01 00:45:55;;;;;;;208.40;71.30;;;;;;;-3.36;84.73;99578.63;111028;1206;98935;-66
2023/12/01 00:48:22;;;;;;;208.80;70.40;;;;;;;-3.43;84.57;99577.08;110955;1221;138972;-67
2023/12/01 00:50:47;;;;;;;203.80;68.30;;;;;;;-3.48;84.53;99576.59;111071;1208;99059;-66
2023/12/01 00:53:13;;;;;;;201.50;65.20;;;;;;;-3.51;84.67;99573.63;111067;1208;99047;-68
2023/12/01 00:55:38;;;;;;;194.90;66.60;;;;;;;-3.54;84.58;99580.98;111013;1208;138807;-68
2023/12/01 00:58:03;;;;;;;198.30;66.10;;;;;;;-3.58;84.63;99585.35;110974;1206;98941;-69
2023/12/01 01:00:30;;;;;;;196.00;66.40;;;;;;;-3.62;84.17;99586.59;110943;1208;140542;-68
2023/12/01 01:02:56;;;;;;;191.10;65.30;;;;;;;-3.66;84.54;99592.02;111080;1205;99688;-68
2023/12/01 01:05:23;;;;;;;205.60;71.70;;;;;;;-3.67;84.44;99591.67;111049;1207;98921;-68
2023/12/01 01:07:48;;;;;;;193.70;68.90;;;;;;;-3.68;84.69;99591.67;110915;1206;139729;-68
2023/12/01 01:10:13;;;;;;;200.10;72.20;;;;;;;-3.68;84.72;99589.23;111140;1219;98936;-68
2023/12/01 01:12:39;;;;;;;232.70;80.70;;;;;;;-3.68;84.60;99589.57;110961;1209;140673;-66
2023/12/01 01:15:04;;;;;;;237.50;78.00;;;;;;;-3.70;84.53;99585.56;111113;1205;97994;-66
2023/12/01 01:17:34;;;;;;;228.40;77.60;;;;;;;-3.71;84.56;99584.35;111126;1209;99054;-66
2023/12/01 01:20:05;;;;;;;246.50;81.80;;;;;;;-3.72;84.65;99582.08;110898;1208;139560;-66
2023/12/01 01:22:31;;;;;;;254.10;83.00;;;;;;;-3.75;84.74;99579.82;111243;1208;100258;-66
2023/12/01 01:24:56;;;;;;;263.80;92.00;;;;;;;-3.79;85.10;99585.06;110900;1205;140649;-66
2023/12/01 01:27:22;;;;;;;255.70;91.80;;;;;;;-3.83;84.64;99591.36;111154;1221;99160;-66
2023/12/01 01:29:47;;;;;;;280.40;96.70;;;;;;;-3.87;84.75;99588.93;111006;1211;99132;-68
2023/12/01 01:32:13;;;;;;;279.80;95.20;;;;;;;-3.88;84.59;99590.49;111003;1205;139645;-68
2023/12/01 01:34:38;;;;;;;291.40;102.40;;;;;;;-3.90;84.34;99584.75;111066;1208;98977;-68
2023/12/01 01:37:04;;;;;;;303.50;102.10;;;;;;;-3.95;84.60;99579.00;110952;1205;139144;-67
2023/12/01 01:39:30;;;;;;;295.90;105.70;;;;;;;-3.96;84.54;99583.71;111172;1206;99028;-68
2023/12/01 01:41:56;;;;;;;306.30;104.80;;;;;;;-3.96;84.76;99587.37;111005;1211;99650;-68
2023/12/01 01:44:22;;;;;;;308.00;103.80;;;;;;;-3.96;84.55;99582.14;111009;1209;139659;-68
2023/12/01 01:46:47;;;;;;;314.60;113.90;;;;;;;-3.97;84.51;99580.75;111192;1205;99028;-68
2023/12/01 01:49:14;;;;;;;334.00;120.00;;;;;;;-3.98;84.45;99578.13;110955;1209;139734;-68
2023/12/01 01:51:39;;;;;;;394.00;138.80;;;;;;;-4.02;84.54;99582.33;111010;1209;98926;-68
2023/12/01 01:54:05;;;;;;;390.50;136.90;;;;;;;-4.03;84.37;99587.39;111129;1206;98989;-68
2023/12/01 01:56:32;;;;;;;420.70;152.80;;;;;;;-4.05;84.52;99590.53;111075;1208;139434;-68
2023/12/01 01:58:59;;;;;;;521.10;185.00;;;;;;;-4.03;84.76;99583.38;111095;1206;99060;-68
2023/12/01 02:01:25;;;;;;;538.80;197.70;;;;;;;-3.92;84.83;99582.48;110956;1206;139664;-69
2023/12/01 02:03:52;;;;;;;493.60;180.40;;;;;;;-3.87;84.99;99585.95;111141;1209;99058;-68
2023/12/01 02:06:19;;;;;;;500.00;181.10;;;;;;;-3.91;84.74;99592.95;111093;1209;112645;-68
2023/12/01 02:08:44;;;;;;;514.70;176.60;;;;;;;-3.98;84.45;99591.21;110876;1206;139776;-68
2023/12/01 02:11:10;;;;;;;464.20;166.60;;;;;;;-4.01;84.40;99593.32;111170;1208;99069;-66
2023/12/01 02:13:35;;;;;;;455.00;163.70;;;;;;;-4.02;84.84;99590.52;111059;1208;139547;-66
2023/12/01 02:16:01;;;;;;;411.80;151.30;;;;;;;-4.04;84.86;99591.74;111059;1205;99145;-66
2023/12/01 02:18:31;;;;;;;424.20;162.80;;;;;;;-4.12;84.61;99598.22;111031;1209;140299;-66
2023/12/01 02:20:57;;;;;;;434.30;160.10;;;;;;;-4.19;84.52;99602.06;111012;1205;98926;-68
2023/12/01 02:23:23;;;;;;;459.20;162.90;;;;;;;-4.26;84.62;99608.87;111108;1208;98979;-68
2023/12/01 02:25:49;;;;;;;444.50;164.40;;;;;;;-4.33;84.64;99616.20;110917;1221;141412;-66
2023/12/01 02:28:16;;;;;;;457.30;161.00;;;;;;;-4.37;84.53;99621.42;111158;1208;99062;-66
2023/12/01 02:30:48;;;;;;;459.80;163.90;;;;;;;-4.39;84.62;99621.25;111140;1220;139819;-69
2023/12/01 02:33:15;;;;;;;441.80;158.00;;;;;;;-4.43;84.30;99623.34;111194;1205;98890;-66
2023/12/01 02:35:48;;;;;;;452.80;162.60;;;;;;;-4.44;84.65;99620.89;111108;1208;99041;-69
2023/12/01 02:38:14;;;;;;;458.50;168.70;;;;;;;-4.43;84.68;99616.38;111022;1209;140887;-66
2023/12/01 02:41:02;;;;;;;444.90;158.20;;;;;;;-4.45;84.75;99614.45;111123;1208;98990;-67
2023/12/01 02:43:25;;;;;;;441.80;156.40;;;;;;;-4.51;84.28;99607.30;110921;1209;139808;-66
2023/12/01 02:45:50;;;;;;;430.90;157.80;;;;;;;-4.58;84.30;99604.33;111051;1206;99054;-66
2023/12/01 02:48:16;;;;;;;408.30;145.50;;;;;;;-4.61;84.01;99604.50;111164;1205;98922;-66
2023/12/01 02:50:43;;;;;;;390.70;140.80;;;;;;;-4.61;84.34;99608.16;110988;1206;139024;-67
2023/12/01 02:53:09;;;;;;;413.00;142.60;;;;;;;-4.59;84.46;99611.48;111098;1209;99136;-67
2023/12/01 02:55:34;;;;;;;411.10;144.40;;;;;;;-4.62;84.55;99612.52;111099;1206;139190;-67
2023/12/01 02:58:00;;;;;;;409.60;148.50;;;;;;;-4.64;84.14;99609.55;111066;1205;98983;-67
2023/12/01 03:00:27;;;;;;;414.10;141.90;;;;;;;-4.65;84.23;99605.72;110885;1205;139809;-67
2023/12/01 03:02:53;;;;;;;426.10;147.90;;;;;;;-4.66;84.32;99608.33;111036;1208;99031;-67
2023/12/01 03:05:20;;;;;;;394.90;139.40;;;;;;;-4.67;84.38;99606.59;111179;1206;97841;-67
2023/12/01 03:07:45;;;;;;;411.30;139.70;;;;;;;-4.69;84.22;99610.60;111181;1209;138967;-67
2023/12/01 03:10:11;;;;;;;389.40;131.50;;;;;;;-4.71;84.20;99606.58;111010;1208;99998;-68
2023/12/01 03:12:38;;;;;;;405.20;134.90;;;;;;;-4.71;84.30;99608.85;111007;1208;139357;-66
2023/12/01 03:15:05;;;;;;;383.50;135.70;;;;;;;-4.72;84.18;99606.40;111130;1208;99092;-67
2023/12/01 03:17:30;;;;;;;409.30;136.10;;;;;;;-4.74;84.18;99605.88;111084;1205;99112;-66
2023/12/01 03:19:57;;;;;;;363.00;126.00;;;;;;;-4.77;84.11;99603.96;110903;1205;139923;-66
2023/12/01 03:22:23;;;;;;;356.30;126.90;;;;;;;-4.79;84.32;99608.13;111010;1211;99003;-66
2023/12/01 03:24:49;;;;;;;387.30;130.80;;;;;;;-4.79;84.24;99606.39;111055;1209;139329;-67
2023/12/01 03:27:15;;;;;;;363.60;125.60;;;;;;;-4.78;84.22;99606.74;111128;1209;100793;-67
2023/12/01 03:29:40;;;;;;;377.50;126.30;;;;;;;-4.81;84.19;99600.64;110991;1210;99063;-66
2023/12/01 03:32:07;;;;;;;378.80;127.30;;;;;;;-4.82;84.42;99602.04;110995;1209;139375;-66
2023/12/01 03:34:33;;;;;;;388.70;132.70;;;;;;;-4.84;84.05;99600.11;111190;1208;114921;-67
2023/12/01 03:36:58;;;;;;;382.90;130.20;;;;;;;-4.88;84.00;99596.80;111004;1208;139538;-66
2023/12/01 03:39:23;;;;;;;385.90;125.20;;;;;;;-4.92;84.13;99595.73;111114;1208;100487;-67
2023/12/01 03:41:48;;;;;;;374.80;129.40;;;;;;;-4.92;84.03;99592.09;110993;1206;99004;-67
2023/12/01 03:44:15;;;;;;;378.70;128.50;;;;;;;-4.94;84.04;99597.66;111031;1206;139908;-66
2023/12/01 03:46:40;;;;;;;373.20;128.70;;;;;;;-4.97;83.92;99600.08;111097;1209;108503;-67
2023/12/01 03:49:06;;;;;;;394.50;136.90;;;;;;;-5.02;83.96;99599.38;110771;1211;139961;-66
2023/12/01 03:51:31;;;;;;;380.90;129.20;;;;;;;-5.03;84.06;99605.99;111105;1206;99381;-66
2023/12/01 03:53:57;;;;;;;380.50;133.30;;;;;;;-5.04;83.94;99604.08;111035;1208;98998;-68
2023/12/01 03:56:23;;;;;;;373.80;128.30;;;;;;;-5.05;84.22;99604.77;110995;1206;139443;-68
2023/12/01 03:58:54;;;;;;;375.70;127.00;;;;;;;-5.05;83.85;99603.02;111102;1208;99692;-68
2023/12/01 04:01:19;;;;;;;;;;;;;;;-5.09;83.77;99600.93;110995;1209;139278;-68
2023/12/01 04:03:44;;;;;;;331.50;108.80;;;;;;;-5.13;84.07;99600.05;111085;1206;99101;-67
2023/12/01 04:06:10;;;;;;;342.80;115.80;;;;;;;-5.16;83.92;99596.73;111074;1205;99221;-67
2023/12/01 04:08:35;;;;;;;369.30;122.90;;;;;;;-5.19;83.99;99604.04;110984;1209;139354;-66
2023/12/01 04:11:00;;;;;;;359.40;118.00;;;;;;;-5.22;83.73;99602.50;111139;1206;97826;-65
2023/12/01 04:13:27;;;;;;;349.80;117.00;;;;;;;-5.25;83.89;99602.66;110920;1228;140905;-66
2023/12/01 04:15:53;;;;;;;347.90;117.50;;;;;;;-5.25;83.99;99600.04;111034;1205;98949;-67
2023/12/01 04:18:18;;;;;;;337.50;108.20;;;;;;;-5.25;83.75;99606.14;111177;1209;98355;-66
2023/12/01 04:20:44;;;;;;;338.30;114.60;;;;;;;-5.29;83.94;99609.61;110907;1206;139718;-66
2023/12/01 04:23:10;;;;;;;331.60;114.50;;;;;;;-5.33;83.86;99613.25;111142;1205;100507;-67
2023/12/01 04:25:40;;;;;;;345.50;115.80;;;;;;;-5.33;83.98;99607.16;110994;1209;140176;-66
2023/12/01 04:28:06;;;;;;;347.40;116.40;;;;;;;-5.33;83.83;99604.71;111121;1206;111957;-67
2023/12/01 04:30:34;;;;;;;362.30;122.40;;;;;;;-5.30;83.84;99598.29;111129;1208;140269;-67
2023/12/01 04:33:00;;;;;;;363.40;123.10;;;;;;;-5.30;83.90;99600.72;111021;1205;99046;-66
2023/12/01 04:35:29;;;;;;;353.70;120.10;;;;;;;-5.35;83.93;99601.23;110984;1205;98954;-68
2023/12/01 04:37:56;;;;;;;348.30;119.40;;;;;;;-5.40;83.97;99603.98;110888;1211;139839;-68
2023/12/01 04:40:23;;;;;;;358.00;124.70;;;;;;;-5.42;83.85;99603.98;111008;1206;98942;-68
2023/12/01 04:42:51;;;;;;;368.90;121.10;;;;;;;-5.36;83.95;99607.31;110967;1206;139619;-68
2023/12/01 04:45:19;;;;;;;368.10;124.40;;;;;;;-5.35;83.86;99604.53;111072;1209;98972;-68
2023/12/01 04:47:46;;;;;;;352.90;124.80;;;;;;;-5.40;83.83;99603.99;111019;1206;98951;-68
2023/12/01 04:50:15;;;;;;;366.10;127.10;;;;;;;-5.45;83.93;99609.37;110881;1205;139979;-68
2023/12/01 04:52:44;;;;;;;379.10;128.50;;;;;;;-5.49;83.70;99610.05;111008;1210;113236;-68
2023/12/01 04:55:12;;;;;;;375.30;123.60;;;;;;;-5.51;83.66;99616.48;110837;1209;140260;-68
2023/12/01 04:57:38;;;;;;;371.00;121.30;;;;;;;-5.55;83.59;99620.63;111072;1206;99053;-68
2023/12/01 05:00:25;;;;;;;337.40;114.40;;;;;;;-5.58;83.64;99620.27;111141;1206;99409;-68
2023/12/01 05:02:52;;;;;;;341.90;109.40;;;;;;;-5.62;83.61;99613.99;110965;1206;99537;-68
2023/12/01 05:05:19;;;;;;;333.30;109.80;;;;;;;-5.59;83.82;99618.19;111074;1208;113267;-68
2023/12/01 05:07:48;;;;;;;322.80;109.30;;;;;;;-5.61;83.64;99619.57;111009;1210;139535;-68
2023/12/01 05:10:16;;;;;;;339.80;111.40;;;;;;;-5.62;83.63;99623.73;111037;1205;108938;-68
2023/12/01 05:12:43;;;;;;;361.00;124.00;;;;;;;-5.66;83.44;99623.71;110883;1208;139887;-68
2023/12/01 05:15:15;;;;;;;381.00;128.80;;;;;;;-5.66;83.72;99629.46;111002;1206;97925;-68
2023/12/01 05:17:54;;;;;;;396.30;131.00;;;;;;;-5.64;83.74;99633.48;111022;1209;112919;-68
2023/12/01 05:20:24;;;;;;;378.70;129.70;;;;;;;-5.68;83.69;99637.09;110944;1209;139536;-68
2023/12/01 05:23:10;;;;;;;380.10;123.90;;;;;;;-5.67;83.74;99642.33;111048;1210;108108;-66
2023/12/01 05:25:44;;;;;;;371.30;124.20;;;;;;;-5.67;83.75;99651.73;110862;1206;140219;-66
2023/12/01 05:28:11;;;;;;;365.50;125.20;;;;;;;-5.67;83.81;99652.25;111074;1209;98984;-66
2023/12/01 05:30:40;;;;;;;382.10;127.70;;;;;;;-5.65;83.82;99657.48;110917;1209;139793;-66
2023/12/01 05:33:05;;;;;;;370.70;122.40;;;;;;;-5.64;83.78;99658.18;111015;1206;99227;-66
2023/12/01 05:35:32;;;;;;;375.20;123.10;;;;;;;-5.62;83.71;99662.02;111045;1209;99023;-67
2023/12/01 05:37:58;;;;;;;352.90;119.30;;;;;;;-5.61;83.87;99664.29;111046;1208;139702;-66
2023/12/01 05:40:26;;;;;;;355.40;124.80;;;;;;;-5.59;83.78;99669.86;111022;1205;112666;-66
2023/12/01 05:42:53;;;;;;;319.20;110.60;;;;;;;-5.58;83.60;99669.88;110996;1205;141245;-66
2023/12/01 05:45:21;;;;;;;311.30;102.90;;;;;;;-5.54;83.81;99673.55;111086;1211;106737;-66
2023/12/01 05:47:48;;;;;;;279.00;93.00;;;;;;;-5.52;83.84;99675.48;111044;1205;98976;-66
2023/12/01 05:50:17;;;;;;;274.10;90.90;;;;;;;-5.53;83.63;99675.46;110933;1209;139901;-66
2023/12/01 05:52:45;;;;;;;263.30;88.20;;;;;;;-5.53;83.74;99673.38;111048;1206;112327;-66
2023/12/01 05:55:15;;;;;;;300.60;96.60;;;;;;;-5.50;83.80;99676.19;110908;1206;139744;-67
2023/12/01 05:58:04;;;;;;;322.10;108.10;;;;;;;-5.47;83.88;99676.20;111115;1206;107640;-66
2023/12/01 06:00:30;;;;;;;341.20;114.70;;;;;;;-5.45;83.77;99669.24;110993;1209;139530;-66
2023/12/01 06:02:58;;;;;;;347.60;114.90;;;;;;;-5.48;83.59;99667.14;111134;1209;98940;-67
2023/12/01 06:05:24;;;;;;;357.10;115.60;;;;;;;-5.49;83.61;99668.35;111067;1205;98936;-66
2023/12/01 06:07:54;;;;;;;352.60;118.30;;;;;;;-5.47;83.63;99674.11;110908;1205;139987;-66
2023/12/01 06:10:21;;;;;;;332.90;113.80;;;;;;;-5.48;83.66;99682.98;111016;1205;108940;-66
2023/12/01 06:12:47;;;;;;;349.60;118.40;;;;;;;-5.56;83.53;99681.38;110900;1211;141300;-66
2023/12/01 06:15:25;;;;;;;334.90;106.90;;;;;;;-5.64;83.43;99684.98;110955;1211;99047;-66
2023/12/01 06:17:51;;;;;;;333.00;110.10;;;;;;;-5.64;83.47;99685.84;111032;1209;114712;-65
2023/12/01 06:20:22;;;;;;;339.70;112.50;;;;;;;-5.63;83.14;99683.94;110977;1210;139703;-65
2023/12/01 06:22:48;;;;;;;;;;;;;;;-5.67;83.38;99684.61;111096;1206;107248;-65
2023/12/01 06:25:14;;;;;;;301.30;95.40;;;;;;;-5.72;83.32;99684.59;110922;1211;126034;-65
2023/12/01 06:27:40;;;;;;;307.10;98.90;;;;;;;-5.73;83.25;99683.70;111061;1206;99341;-66
2023/12/01 06:30:14;;;;;;;315.70;103.10;;;;;;;-5.73;83.13;99678.65;111045;1205;98925;-66
2023/12/01 06:32:41;;;;;;;315.00;100.00;;;;;;;-5.79;83.04;99678.09;110896;1209;139541;-67
2023/12/01 06:35:11;;;;;;;288.30;98.70;;;;;;;-5.88;83.35;99680.83;111060;1205;99478;-66
2023/12/01 06:37:38;;;;;;;318.50;100.80;;;;;;;-5.95;83.09;99680.10;110862;1206;139139;-66
2023/12/01 06:40:13;;;;;;;295.20;97.60;;;;;;;-6.01;83.01;99675.19;111105;1211;98915;-66
2023/12/01 06:42:42;;;;;;;301.40;94.40;;;;;;;-6.04;83.17;99671.52;110996;1209;140543;-66
2023/12/01 06:45:15;;;;;;;291.20;92.30;;;;;;;-6.01;83.11;99671.88;111085;1210;108056;-67
2023/12/01 06:47:46;;;;;;;279.30;93.10;;;;;;;-6.00;83.26;99671.20;111219;1208;100375;-67
2023/12/01 06:50:14;;;;;;;283.60;94.10;;;;;;;-5.99;83.18;99672.41;110842;1205;139818;-67
2023/12/01 06:52:40;;;;;;;297.60;93.00;;;;;;;-5.99;83.20;99673.82;111098;1209;112017;-66
2023/12/01 06:55:07;;;;;;;296.80;92.80;;;;;;;-6.01;82.95;99676.59;110845;1208;140506;-66
2023/12/01 06:57:36;;;;;;;290.60;95.30;;;;;;;-6.05;83.12;99676.20;111154;1209;99475;-67
2023/12/01 07:00:01;;;;;;;302.90;96.40;;;;;;;-6.07;83.09;99681.23;110948;1209;100051;-66
2023/12/01 07:02:33;;;;;;;287.20;97.20;;;;;;;-6.10;83.04;99683.46;111026;1209;139570;-69
2023/12/01 07:04:59;;;;;;;291.70;93.60;;;;;;;-6.13;82.97;99685.87;111015;1208;114188;-68
2023/12/01 07:07:24;;;;;;;296.90;95.10;;;;;;;-6.16;83.08;99692.11;110968;1205;139222;-68
2023/12/01 07:09:50;;;;;;;303.20;97.90;;;;;;;-6.17;82.94;99692.10;111021;1209;98951;-69
2023/12/01 07:12:15;;;;;;;297.70;96.80;;;;;;;-6.18;82.97;99697.83;110996;1204;98989;-68
2023/12/01 07:14:41;;;;;;;280.40;90.30;;;;;;;-6.18;82.97;99699.39;111044;1206;139832;-68
2023/12/01 07:17:06;;;;;;;275.20;90.50;;;;;;;-6.18;83.00;99704.78;111035;1206;104978;-69
2023/12/01 07:19:32;;;;;;;268.60;87.50;;;;;;;-6.18;82.97;99707.56;110934;1209;140061;-66
2023/12/01 07:21:59;;;;;;;249.10;85.90;;;;;;;-6.17;83.01;99713.48;111024;1205;98948;-65
2023/12/01 07:24:24;;;;;;;280.10;90.80;;;;;;;-6.16;83.12;99707.40;111078;1209;100382;-66
2023/12/01 07:26:51;;;;;;;252.60;83.70;;;;;;;-6.18;83.18;99714.34;110952;1210;99015;-66
2023/12/01 07:29:18;;;;;;;237.10;79.40;;;;;;;-6.18;82.90;99719.73;111038;1209;98993;-67
2023/12/01 07:31:44;;;;;;;244.00;78.70;;;;;;;-6.18;83.03;99722.70;110872;1209;139204;-67
2023/12/01 07:34:11;;;;;;;246.10;79.70;;;;;;;-6.16;82.98;99725.14;111195;1207;101061;-66
2023/12/01 07:36:37;;;;;;;235.70;74.50;;;;;;;-6.14;83.14;99720.13;110951;1209;144407;-66
2023/12/01 07:39:03;;;;;;;241.90;77.10;;;;;;;-6.10;83.20;99724.51;111036;1206;99085;-65
2023/12/01 07:41:28;;;;;;;231.40;78.40;;;;;;;-6.07;83.05;99728.52;111126;1210;99403;-66
2023/12/01 07:43:55;;;;;;;254.80;81.00;;;;;;;-6.02;83.22;99730.31;110919;1206;140091;-66
2023/12/01 07:46:22;;;;;;;278.30;84.30;;;;;;;-6.01;83.10;99731.36;111059;1205;99003;-66
2023/12/01 07:48:47;;;;;;;276.20;92.60;;;;;;;-6.01;83.16;99736.24;110863;1210;139959;-66
2023/12/01 07:51:12;;;;;;;286.30;92.70;;;;;;;-6.04;83.03;99736.55;111166;1205;98935;-68
2023/12/01 07:53:37;;;;;;;300.10;92.60;;;;;;;-6.07;83.07;99735.83;111042;1211;100463;-68
2023/12/01 07:56:03;;;;;;;297.20;95.40;;;;;;;-6.09;82.97;99738.25;110953;1211;139379;-68
2023/12/01 07:58:29;;;;;;;294.80;95.00;;;;;;;-6.10;83.06;99736.86;111067;1206;100592;-69
2023/12/01 08:00:57;;;;;;;298.40;93.10;;;;;;;-6.11;83.08;99738.75;111182;1206;139733;-77
2023/12/01 08:03:23;;;;;;;261.90;83.00;;;;;;;-6.10;83.04;99739.64;112516;1206;99564;-74
2023/12/01 08:05:48;;;;;;;263.90;86.20;;;;;;;-6.09;83.05;99736.34;111031;1206;99008;-75
2023/12/01 08:08:14;;;;;;;237.70;75.40;;;;;;;-6.06;83.09;99733.58;110850;1210;139548;-69
2023/12/01 08:10:39;;;;;;;214.70;69.10;;;;;;;-6.01;83.29;99733.98;110946;1211;99673;-70
2023/12/01 08:13:05;;;;;;;220.10;71.50;;;;;;;-5.98;83.50;99733.13;111193;1206;140271;-72
2023/12/01 08:15:31;;;;;;;246.60;78.00;;;;;;;-5.95;83.23;99739.41;111045;1205;99143;-71
2023/12/01 08:17:58;;;;;;;249.90;82.30;;;;;;;-5.93;83.32;99742.21;111016;1205;98925;-69
2023/12/01 08:20:23;;;;;;;244.30;77.30;;;;;;;-5.90;83.39;99740.83;110946;1206;139827;-69
2023/12/01 08:22:49;;;;;;;247.90;82.30;;;;;;;-5.85;83.37;99749.71;111065;1211;98962;-70
2023/12/01 08:25:15;;;;;;;250.20;81.30;;;;;;;-5.79;83.49;99754.30;110937;1205;139805;-70
2023/12/01 08:27:41;;;;;;;256.00;79.80;;;;;;;-5.76;83.49;99751.53;111055;1209;99380;-70
2023/12/01 08:30:08;;;;;;;256.60;78.80;;;;;;;-5.75;83.42;99749.11;111240;1206;98925;-70
2023/12/01 08:32:35;;;;;;;243.00;79.50;;;;;;;-5.73;83.32;99749.98;113188;1206;139637;-70
2023/12/01 08:35:02;;;;;;;254.00;83.30;;;;;;;-5.71;83.40;99754.36;113284;1205;97132;-70
2023/12/01 08:37:27;;;;;;;252.90;83.10;;;;;;;-5.68;83.38;99754.55;113209;1205;139244;-70
2023/12/01 08:39:53;;;;;;;253.50;77.50;;;;;;;-5.65;83.44;99753.36;113369;1205;97102;-70
2023/12/01 08:42:19;;;;;;;237.30;79.90;;;;;;;-5.61;83.43;99753.21;111750;1205;108570;-70
2023/12/01 08:44:44;;;;;;;245.40;78.50;;;;;;;-5.60;83.42;99755.30;110895;1211;139320;-70
2023/12/01 08:47:13;;;;;;;225.10;74.30;;;;;;;-5.54;83.57;99768.23;110988;1206;98927;-70
2023/12/01 08:49:39;;;;;;;245.00;81.50;;;;;;;-5.52;83.44;99774.69;110814;1209;139444;-70
2023/12/01 08:52:04;;;;;;;238.30;78.80;;;;;;;-5.51;83.64;99781.14;110962;1206;99016;-69
2023/12/01 08:54:30;;;;;;;243.90;79.20;;;;;;;-5.48;83.66;99780.98;110907;1210;139520;-68
2023/12/01 08:56:58;;;;;;;251.00;79.90;;;;;;;-5.44;83.80;99787.10;110951;1211;99123;-67
2023/12/01 08:59:24;;;;;;;256.40;84.00;;;;;;;-5.39;83.59;99796.20;110712;1206;101215;-67
2023/12/01 09:01:49;;;;;;;234.60;82.10;;;;;;;-5.35;83.85;99802.31;110864;1211;139229;-66
2023/12/01 09:04:14;;;;;;;240.20;79.50;;;;;;;-5.32;83.76;99808.43;111086;1206;98951;-67
2023/12/01 09:06:40;;;;;;;246.70;83.60;;;;;;;-5.29;83.83;99810.72;110978;1205;140137;-67
2023/12/01 09:09:05;;;;;;;265.70;86.60;;;;;;;-5.24;83.91;99809.00;111143;1206;99127;-68
2023/12/01 09:11:31;;;;;;;268.60;91.30;;;;;;;-5.20;83.68;99810.94;111010;1209;99047;-67
2023/12/01 09:13:56;;;;;;;265.70;88.30;;;;;;;-5.16;83.81;99813.02;110906;1209;139647;-65
2023/12/01 09:16:23;;;;;;;266.00;87.30;;;;;;;-5.11;83.71;99814.45;111037;1205;98974;-66
2023/12/01 09:18:49;;;;;;;236.80;82.80;;;;;;;-5.07;84.04;99812.04;110893;1205;139327;-67
2023/12/01 09:21:15;;;;;;;271.40;85.90;;;;;;;-5.05;83.98;99807.70;111121;1206;103114;-67
2023/12/01 09:23:41;;;;;;;250.90;83.20;;;;;;;-5.02;83.90;99803.88;111057;1208;99246;-67
2023/12/01 09:26:07;;;;;;;244.60;83.60;;;;;;;-5.01;83.74;99805.29;110907;1211;139113;-67
2023/12/01 09:28:35;;;;;;;258.20;86.90;;;;;;;-4.98;83.83;99808.95;111126;1205;98951;-71
2023/12/01 09:31:04;;;;;;;251.00;86.90;;;;;;;-4.95;84.15;99807.23;110790;1209;139636;-66
2023/12/01 09:33:32;;;;;;;266.10;93.80;;;;;;;-4.92;84.10;99808.30;111303;1211;99447;-67
2023/12/01 09:35:57;;;;;;;264.80;93.80;;;;;;;-4.89;83.96;99801.69;111022;1205;114168;-67
2023/12/01 09:38:24;;;;;;;279.40;98.60;;;;;;;-4.86;83.88;99800.48;110915;1205;139711;-65
2023/12/01 09:40:50;;;;;;;284.30;98.60;;;;;;;-4.82;84.15;99795.79;110838;1211;98945;-66
2023/12/01 09:43:17;;;;;;;267.40;90.80;;;;;;;-4.78;84.01;99792.33;110906;1206;140084;-66
2023/12/01 09:45:43;;;;;;;269.40;96.30;;;;;;;-4.75;84.12;99786.95;110868;1223;111999;-66
2023/12/01 09:48:10;;;;;;;233.00;86.50;;;;;;;-4.71;84.12;99786.43;110991;1211;99123;-67
2023/12/01 09:50:36;;;;;;;252.30;85.00;;;;;;;-4.69;84.27;99783.48;110939;1206;139573;-64
2023/12/01 09:53:02;;;;;;;224.10;79.20;;;;;;;-4.65;84.09;99782.80;111109;1210;99002;-64
2023/12/01 09:55:28;;;;;;;225.80;77.50;;;;;;;-4.59;84.17;99782.30;110974;1208;138947;-64
2023/12/01 09:57:53;;;;;;;220.90;73.60;;;;;;;-4.53;84.54;99782.85;110875;1221;98954;-65
2023/12/01 10:00:20;;;;;;;188.60;66.30;;;;;;;-4.45;84.59;99788.98;111007;1211;99189;-65
2023/12/01 10:02:45;;;;;;;185.30;62.10;;;;;;;-4.36;84.48;99791.10;110865;1209;140033;-66
2023/12/01 10:05:18;;;;;;;178.30;62.00;;;;;;;-4.27;84.22;99791.64;110891;1211;99063;-65
2023/12/01 10:07:44;;;;;;;172.10;58.20;;;;;;;-4.21;84.53;99790.27;110839;1211;140075;-65
2023/12/01 10:10:28;;;;;;;151.60;50.30;;;;;;;-4.15;84.62;99796.38;113266;1205;100166;-65
2023/12/01 10:13:07;;;;;;;143.70;50.10;;;;;;;-4.07;84.49;99797.44;110706;1206;140121;-65
2023/12/01 10:15:37;;;;;;;148.10;49.50;;;;;;;-4.00;84.74;99786.80;110987;1209;99141;-64
2023/12/01 10:18:13;;;;;;;129.10;43.30;;;;;;;-3.94;84.54;99783.67;110915;1209;113276;-64
2023/12/01 10:20:39;;;;;;;131.00;45.40;;;;;;;-3.86;84.59;99780.73;110777;1205;140094;-64
2023/12/01 10:23:20;;;;;;;62.10;23.40;;;;;;;-3.83;84.43;99778.10;110825;1210;99102;-64
2023/12/01 10:25:48;;;;;;;44.20;16.50;;;;;;;-3.78;84.61;99774.96;110874;1212;138892;-64
2023/12/01 10:28:14;;;;;;;41.40;15.40;;;;;;;-3.75;84.59;99773.56;111069;1211;99024;-64
2023/12/01 10:30:58;;;;;;;38.30;15.70;;;;;;;-3.71;84.48;99772.70;110846;1211;140572;-64
2023/12/01 10:33:30;;;;;;;32.90;13.00;;;;;;;-3.64;84.73;99778.64;110789;1206;101881;-64
2023/12/01 10:36:01;;;;;;;33.10;14.10;;;;;;;-3.53;84.71;99777.06;110911;1211;108039;-64
2023/12/01 10:38:27;;;;;;;34.10;13.70;;;;;;;-3.44;84.83;99773.04;110925;1221;141858;-64
2023/12/01 10:40:56;;;;;;;30.60;11.90;;;;;;;-3.40;84.46;99776.70;110941;1211;98957;-64
2023/12/01 10:43:22;;;;;;;25.10;9.80;;;;;;;-3.33;84.80;99776.70;112890;1205;140042;-65
2023/12/01 10:45:52;;;;;;;27.90;11.60;;;;;;;-3.24;84.56;99775.63;112979;1205;97095;-68
2023/12/01 10:48:21;;;;;;;37.50;13.20;;;;;;;-3.12;84.82;99781.38;113142;1205;108465;-65
2023/12/01 10:50:48;;;;;;;37.40;13.50;;;;;;;-2.98;84.94;99782.04;112452;1208;139507;-64
2023/12/01 10:53:19;;;;;;;51.20;18.40;;;;;;;-2.89;84.89;99780.27;110793;1215;99886;-68
2023/12/01 10:55:46;;;;;;;44.30;17.10;;;;;;;-2.79;84.83;99776.56;110854;1209;138943;-64